Time;durP1;ratioP1;P1;durP2;ratioP2;P2;SDS_P1;SDS_P2;PMS_P1;PMS_P2;Temp;Humidity;BMP_temperature;BMP_pressure;BME280_temperature;BME280_humidity;BME280_pressure;Samples;Min_cycle;Max_cycle;Signal;HPM_P1;HPM_P2
2023/10/09 01:43:46;;;;;;;9.00;4.10;;;18.20;91.50;;;;;;7313922;19;2004448;-82
2023/10/09 02:50:20;;;;;;;12.57;4.87;;;17.90;91.70;;;;;;6641328;19;15096774;-81
2023/10/09 02:53:29;;;;;;;9.30;3.60;;;17.70;91.90;;;;;;7416895;19;20239;-81
2023/10/09 03:19:19;;;;;;;18.60;3.85;;;17.70;91.40;;;;;;7314247;19;2004268;-80
2023/10/09 04:02:25;;;;;;;10.57;4.63;;;17.40;92.50;;;;;;7415717;19;20006;-81
2023/10/09 04:04:58;;;;;;;10.98;4.03;;;17.40;92.40;;;;;;7415790;19;19999;-81
2023/10/09 04:07:28;;;;;;;13.52;4.75;;;17.40;92.40;;;;;;7416510;19;20388;-80
2023/10/09 04:10:26;;;;;;;12.60;4.13;;;17.40;92.20;;;;;;7417043;19;20023;-80
2023/10/09 04:12:58;;;;;;;13.10;4.53;;;17.40;92.20;;;;;;7415517;19;20012;-80
2023/10/09 04:15:30;;;;;;;11.73;4.40;;;17.40;92.10;;;;;;7416921;19;20007;-80
2023/10/09 04:18:03;;;;;;;15.82;4.47;;;17.40;92.00;;;;;;7387947;19;20037;-80
2023/10/09 04:23:35;;;;;;;13.52;4.07;;;17.30;91.90;;;;;;7386453;19;20444;-81
2023/10/09 04:29:18;;;;;;;13.15;4.85;;;17.30;91.90;;;;;;7386838;19;20036;-80
2023/10/09 04:37:52;;;;;;;16.20;4.10;;;17.30;91.90;;;;;;7387606;19;20010;-81
2023/10/09 04:40:59;;;;;;;16.75;4.70;;;17.30;91.80;;;;;;7387717;19;20260;-81
2023/10/09 04:43:27;;;;;;;17.20;4.35;;;17.30;91.70;;;;;;7386110;19;20013;-79
2023/10/09 04:48:45;;;;;;;18.10;3.80;;;17.30;91.50;;;;;;7382729;19;20341;-79
2023/10/09 04:51:21;;;;;;;23.05;3.78;;;17.30;91.50;;;;;;7405545;19;20014;-80
2023/10/09 04:54:00;;;;;;;11.00;4.30;;;17.40;91.50;;;;;;7390020;19;20015;-80
2023/10/09 04:56:31;;;;;;;12.70;4.18;;;17.40;91.40;;;;;;7387956;19;20007;-79
2023/10/09 04:59:08;;;;;;;10.88;4.38;;;17.30;91.80;;;;;;7387241;19;20011;-80
2023/10/09 05:01:45;;;;;;;10.98;4.35;;;17.30;91.40;;;;;;7388334;19;20007;-79
2023/10/09 05:04:39;;;;;;;12.43;4.45;;;17.30;91.40;;;;;;7385465;19;19999;-81
2023/10/09 05:07:22;;;;;;;8.60;4.20;;;17.30;91.50;;;;;;7385177;19;20007;-80
2023/10/09 05:10:14;;;;;;;19.00;5.32;;;17.30;91.50;;;;;;7385778;19;20079;-81
2023/10/09 05:12:46;;;;;;;;;;;17.30;91.40;;;;;;7384758;19;20309;-80
2023/10/09 05:15:16;;;;;;;14.18;4.53;;;17.30;91.80;;;;;;7407220;19;19903;-80
2023/10/09 05:17:56;;;;;;;11.65;4.55;;;17.30;91.50;;;;;;7388776;19;20010;-80
2023/10/09 05:23:26;;;;;;;20.80;5.50;;;17.20;91.50;;;;;;7398561;19;20011;-80
2023/10/09 05:25:56;;;;;;;19.63;4.63;;;17.20;91.60;;;;;;7397175;19;20002;-81
2023/10/09 05:28:48;;;;;;;16.92;5.13;;;17.10;91.70;;;;;;7391375;19;20013;-80
2023/10/09 05:34:06;;;;;;;21.98;5.00;;;17.00;91.80;;;;;;7385212;19;20343;-81
2023/10/09 05:36:47;;;;;;;18.98;5.00;;;17.00;91.90;;;;;;7382394;19;20027;-80
2023/10/09 05:39:41;;;;;;;23.55;6.88;;;17.00;91.90;;;;;;7406345;19;20660;-81
2023/10/09 05:42:16;;;;;;;26.75;5.97;;;17.00;91.90;;;;;;7384104;19;20292;-81
2023/10/09 05:47:53;;;;;;;19.88;5.93;;;16.90;91.90;;;;;;7387097;19;20011;-80
2023/10/09 05:50:34;;;;;;;13.13;5.35;;;17.00;91.90;;;;;;7384972;19;20052;-82
2023/10/09 05:53:34;;;;;;;13.57;5.28;;;17.00;91.80;;;;;;7382680;19;20018;-79
2023/10/09 06:04:53;;;;;;;16.60;4.82;;;17.00;91.60;;;;;;7382014;19;20013;-80
2023/10/09 06:08:04;;;;;;;17.98;5.30;;;17.00;91.60;;;;;;7383551;19;20018;-79
2023/10/09 06:10:42;;;;;;;17.95;5.38;;;17.00;91.50;;;;;;7384062;19;20015;-81
2023/10/09 06:13:45;;;;;;;13.35;5.20;;;17.00;91.50;;;;;;7384456;19;20046;-81
2023/10/09 06:16:31;;;;;;;17.23;4.68;;;17.00;91.60;;;;;;7384585;19;20014;-80
2023/10/09 06:19:26;;;;;;;12.82;4.82;;;17.00;91.60;;;;;;7383378;19;20018;-81
2023/10/09 06:24:57;;;;;;;16.83;5.30;;;17.00;91.70;;;;;;7384495;19;20011;-81
2023/10/09 06:27:57;;;;;;;18.15;5.00;;;17.00;91.70;;;;;;7402782;19;20014;-81
2023/10/09 06:30:47;;;;;;;19.65;5.13;;;17.00;91.80;;;;;;7382692;19;20081;-81
2023/10/09 06:33:29;;;;;;;14.80;5.80;;;17.00;91.90;;;;;;7382486;19;20041;-81
2023/10/09 06:36:08;;;;;;;14.02;4.88;;;17.00;91.70;;;;;;7384342;19;20054;-81
2023/10/09 06:38:52;;;;;;;19.33;5.38;;;17.10;91.70;;;;;;7382250;19;19998;-80
2023/10/09 06:41:38;;;;;;;18.05;5.05;;;17.10;91.80;;;;;;7382430;19;20011;-81
2023/10/09 06:44:52;;;;;;;20.80;5.13;;;17.10;91.80;;;;;;7380814;19;20093;-81
2023/10/09 06:47:07;;;;;;;16.83;5.47;;;17.10;91.90;;;;;;7382008;19;20094;-81
2023/10/09 06:49:37;;;;;;;12.18;5.32;;;17.10;92.00;;;;;;7381530;19;20033;-81
2023/10/09 06:52:15;;;;;;;16.48;5.47;;;17.20;92.00;;;;;;7380405;19;20029;-80
2023/10/09 06:54:56;;;;;;;17.40;5.10;;;17.20;92.00;;;;;;7380138;19;20019;-80
2023/10/09 06:57:48;;;;;;;21.00;5.05;;;17.20;92.30;;;;;;7403167;19;20013;-81
2023/10/09 07:03:19;;;;;;;14.55;5.05;;;17.30;91.90;;;;;;7383246;19;20015;-83
2023/10/09 07:06:00;;;;;;;27.67;5.57;;;17.30;91.90;;;;;;7382660;19;20006;-83
2023/10/09 07:08:57;;;;;;;17.27;5.18;;;17.40;91.90;;;;;;7383759;19;20027;-81
2023/10/09 07:13:07;;;;;;;16.90;4.93;;;17.40;91.90;;;;;;7383703;19;20032;-85
2023/10/09 07:21:06;;;;;;;27.77;5.65;;;17.50;92.10;;;;;;7376722;19;20003;-76
2023/10/09 07:23:48;;;;;;;15.63;6.10;;;17.60;92.20;;;;;;7378003;19;20051;-76
2023/10/09 07:26:36;;;;;;;29.08;6.35;;;17.60;92.20;;;;;;7377646;19;20074;-75
2023/10/09 07:31:56;;;;;;;20.95;6.03;;;17.70;92.30;;;;;;7381224;19;20003;-77
2023/10/09 07:38:09;;;;;;;14.02;5.75;;;17.80;92.50;;;;;;7402070;19;20034;-82
2023/10/09 07:40:55;;;;;;;26.45;5.93;;;17.90;92.60;;;;;;7403845;19;20003;-81
2023/10/09 07:43:35;;;;;;;23.77;6.13;;;17.90;92.60;;;;;;7390590;19;20074;-78
2023/10/09 07:56:06;;;;;;;21.95;6.00;;;18.20;92.90;;;;;;7410242;19;20246;-82
2023/10/09 07:58:51;;;;;;;22.40;5.72;;;18.20;93.00;;;;;;7387512;19;20007;-80
2023/10/09 08:04:14;;;;;;;22.27;6.28;;;18.40;93.20;;;;;;7386749;19;20023;-80
2023/10/09 08:06:42;;;;;;;22.45;6.38;;;18.40;93.10;;;;;;7388768;19;20015;-78
2023/10/09 08:09:38;;;;;;;27.20;6.30;;;18.40;93.10;;;;;;7411520;19;20015;-78
2023/10/09 08:14:59;;;;;;;27.17;6.00;;;18.50;93.10;;;;;;7389188;19;20020;-78
2023/10/09 08:17:28;;;;;;;18.40;5.88;;;18.60;93.10;;;;;;7391766;19;20020;-80
2023/10/09 08:20:11;;;;;;;20.65;6.35;;;18.70;93.20;;;;;;7391600;19;20013;-79
2023/10/09 08:22:42;;;;;;;17.75;5.63;;;18.70;93.20;;;;;;7388972;19;20007;-78
2023/10/09 08:25:26;;;;;;;;;;;18.70;93.00;;;;;;7392628;19;20301;-79
2023/10/09 08:28:38;;;;;;;25.55;6.72;;;18.80;93.00;;;;;;7394817;19;20283;-77
2023/10/09 08:30:50;;;;;;;29.30;6.47;;;18.80;92.90;;;;;;7388711;19;20023;-78
2023/10/09 08:36:04;;;;;;;25.75;5.70;;;18.90;92.80;;;;;;7386319;19;20568;-78
2023/10/09 08:38:35;;;;;;;15.30;6.00;;;19.00;92.70;;;;;;7387094;19;20424;-80
2023/10/09 08:44:33;;;;;;;20.80;6.20;;;19.10;92.50;;;;;;7409150;19;20014;-82
2023/10/09 08:47:03;;;;;;;18.77;5.18;;;19.10;92.30;;;;;;7388243;19;20010;-80
2023/10/09 08:49:33;;;;;;;17.63;5.80;;;19.20;92.30;;;;;;7388148;19;20282;-78
2023/10/09 08:52:03;;;;;;;21.52;5.65;;;19.20;92.20;;;;;;7387345;19;20011;-78
2023/10/09 08:54:33;;;;;;;19.88;5.72;;;19.20;92.20;;;;;;7392939;19;20021;-78
2023/10/09 09:00:24;;;;;;;11.37;5.30;;;19.30;92.00;;;;;;7417082;19;19979;-81
2023/10/09 09:07:20;;;;;;;21.98;6.20;;;19.40;92.20;;;;;;7391545;19;20021;-81
2023/10/09 09:10:17;;;;;;;18.05;5.22;;;19.40;92.10;;;;;;7390409;19;20018;-83
2023/10/09 09:13:00;;;;;;;21.42;5.72;;;19.50;92.10;;;;;;7384605;19;20082;-80
2023/10/09 09:15:40;;;;;;;21.60;5.53;;;19.60;92.10;;;;;;7411190;19;20018;-80
2023/10/09 09:18:10;;;;;;;13.18;5.63;;;19.60;92.10;;;;;;7385910;19;20243;-79
2023/10/09 09:20:45;;;;;;;18.90;5.07;;;19.60;92.10;;;;;;7383831;19;20110;-78
2023/10/09 09:23:14;;;;;;;26.85;5.85;;;19.70;92.40;;;;;;7386359;19;20047;-79
2023/10/09 09:25:49;;;;;;;18.95;5.00;;;19.70;92.30;;;;;;7389285;19;20007;-80
2023/10/09 09:28:40;;;;;;;22.90;5.57;;;19.70;92.20;;;;;;7391819;19;20024;-81
2023/10/09 09:31:22;;;;;;;27.38;5.10;;;19.80;92.10;;;;;;7391572;19;19999;-80
2023/10/09 09:37:07;;;;;;;21.60;4.90;;;19.90;92.10;;;;;;7385271;19;19995;-76
2023/10/09 09:39:35;;;;;;;16.10;5.20;;;19.90;92.10;;;;;;7384570;19;20247;-76
2023/10/09 09:42:07;;;;;;;23.50;5.32;;;20.00;92.20;;;;;;7402888;19;20010;-76
2023/10/09 09:44:45;;;;;;;16.30;5.57;;;20.00;91.80;;;;;;7381622;19;20058;-76
2023/10/09 09:47:25;;;;;;;15.20;5.80;;;20.00;91.80;;;;;;7382186;19;20014;-77
2023/10/09 09:49:59;;;;;;;21.08;5.80;;;20.00;91.60;;;;;;7389127;19;20046;-77
2023/10/09 09:52:37;;;;;;;11.88;4.80;;;20.10;91.20;;;;;;7387943;19;20003;-77
2023/10/09 09:55:14;;;;;;;26.65;5.32;;;20.10;90.90;;;;;;7386638;19;20113;-77
2023/10/09 09:58:18;;;;;;;19.35;4.70;;;20.20;90.60;;;;;;7399394;19;20017;-81
2023/10/09 10:07:16;;;;;;;21.70;5.35;;;20.30;89.70;;;;;;7391144;19;19999;-81
2023/10/09 10:35:56;;;;;;;10.90;4.40;;;20.60;84.60;;;;;;7425537;19;20361;-80
2023/10/09 10:51:38;;;;;;;9.57;4.28;;;20.90;81.30;;;;;;7445381;19;19987;-80
2023/10/09 10:56:52;;;;;;;14.25;4.25;;;21.00;79.00;;;;;;7419555;19;20017;-79
2023/10/09 10:59:23;;;;;;;13.43;4.35;;;21.10;79.30;;;;;;7415386;19;20014;-79
2023/10/09 11:02:14;;;;;;;15.20;4.65;;;21.10;79.80;;;;;;7414710;19;20093;-77
2023/10/09 11:04:45;;;;;;;15.13;4.33;;;21.20;80.20;;;;;;7416637;19;20010;-80
2023/10/09 11:07:24;;;;;;;15.38;4.22;;;21.30;80.70;;;;;;7423185;19;20305;-80
2023/10/09 11:23:14;;;;;;;16.35;4.28;;;21.40;77.60;;;;;;7417618;19;20002;-80
2023/10/09 11:25:50;;;;;;;18.30;4.30;;;21.50;76.00;;;;;;7413750;19;20246;-74
2023/10/09 11:28:42;;;;;;;9.20;4.03;;;21.50;75.90;;;;;;7410141;19;20082;-76
2023/10/09 11:31:15;;;;;;;19.77;4.35;;;21.50;76.70;;;;;;7408477;19;20046;-77
2023/10/09 11:33:45;;;;;;;15.60;4.53;;;21.60;76.00;;;;;;7412713;19;20007;-77
2023/10/09 11:36:16;;;;;;;18.65;4.53;;;21.70;76.70;;;;;;7413332;19;20031;-77
2023/10/09 11:38:45;;;;;;;16.80;3.90;;;21.70;77.30;;;;;;7387588;19;20006;-77
2023/10/09 11:41:23;;;;;;;15.48;4.40;;;21.80;78.00;;;;;;7389102;19;20014;-75
2023/10/09 11:43:51;;;;;;;11.77;3.70;;;21.90;76.90;;;;;;7386272;19;20039;-75
2023/10/09 11:54:56;;;;;;;12.52;4.53;;;22.30;74.10;;;;;;7385177;19;20349;-77
2023/10/09 11:57:44;;;;;;;14.52;4.60;;;22.40;72.20;;;;;;7412745;19;19999;-83
2023/10/09 12:00:28;;;;;;;10.15;4.40;;;22.60;72.70;;;;;;7389217;19;20413;-77
2023/10/09 12:03:04;;;;;;;16.08;4.45;;;22.80;72.50;;;;;;7389686;19;20093;-78
2023/10/09 12:05:33;;;;;;;9.02;4.22;;;22.90;72.00;;;;;;7390634;19;20007;-78
2023/10/09 12:08:02;;;;;;;18.88;4.78;;;23.10;73.40;;;;;;7388298;19;20006;-77
2023/10/09 12:10:33;;;;;;;16.30;4.85;;;23.20;73.30;;;;;;7384540;19;20020;-77
2023/10/09 12:19:35;;;;;;;18.70;4.53;;;23.50;72.00;;;;;;7411699;19;20010;-81
2023/10/09 12:33:59;;;;;;;13.00;4.03;;;23.50;62.10;;;;;;7411607;19;20046;-82
2023/10/09 12:37:22;;;;;;;8.70;4.10;;;23.50;64.90;;;;;;7396626;19;20006;-82
2023/10/09 12:53:07;;;;;;;13.13;4.55;;;23.70;66.40;;;;;;7405655;19;20052;-81
2023/10/09 12:55:40;;;;;;;9.80;4.28;;;23.80;63.10;;;;;;7385076;19;20024;-80
2023/10/09 12:58:14;;;;;;;11.48;4.22;;;23.90;63.10;;;;;;7387489;19;20022;-80
2023/10/09 13:03:49;;;;;;;14.68;4.60;;;23.90;64.00;;;;;;7420263;19;20382;-80
2023/10/09 13:06:23;;;;;;;11.73;4.40;;;23.90;65.50;;;;;;7442852;19;20017;-77
2023/10/09 13:08:59;;;;;;;9.32;4.13;;;23.90;64.30;;;;;;7420391;19;20026;-79
2023/10/09 13:11:28;;;;;;;9.48;4.40;;;23.90;64.00;;;;;;7423040;19;20381;-80
2023/10/09 13:17:16;;;;;;;8.15;4.60;;;24.20;64.70;;;;;;7394728;19;20034;-79
2023/10/09 13:19:48;;;;;;;16.08;4.70;;;24.40;64.40;;;;;;7447142;19;20030;-80
2023/10/09 13:22:16;;;;;;;9.13;4.88;;;24.60;61.80;;;;;;7424653;19;20075;-80
2023/10/09 13:24:48;;;;;;;9.20;4.45;;;24.70;61.90;;;;;;7423369;19;20010;-77
2023/10/09 13:27:25;;;;;;;11.63;4.70;;;24.70;58.20;;;;;;7441548;19;20034;-80
2023/10/09 13:30:05;;;;;;;7.88;4.43;;;24.80;58.80;;;;;;7423117;19;20013;-80
2023/10/09 13:39:02;;;;;;;9.47;4.73;;;24.70;58.60;;;;;;7402811;19;20230;-79
2023/10/09 13:42:03;;;;;;;12.73;4.43;;;24.60;59.40;;;;;;7416052;19;20014;-84
2023/10/09 13:53:29;;;;;;;12.18;4.28;;;24.30;59.80;;;;;;7418985;19;19999;-75
2023/10/09 13:56:08;;;;;;;11.15;4.47;;;24.30;61.10;;;;;;7417666;19;20027;-77
2023/10/09 13:58:38;;;;;;;12.73;4.50;;;24.30;61.80;;;;;;7413527;19;20362;-78
2023/10/09 14:08:16;;;;;;;15.77;4.80;;;24.30;62.80;;;;;;7432705;19;20017;-82
2023/10/09 14:10:56;;;;;;;12.05;5.03;;;24.30;63.50;;;;;;7437893;19;20062;-83
2023/10/09 14:13:30;;;;;;;11.68;5.10;;;24.20;68.80;;;;;;7424727;19;20014;-80
2023/10/09 14:16:06;;;;;;;9.93;4.70;;;24.20;68.90;;;;;;7407833;19;20032;-80
2023/10/09 14:21:49;;;;;;;21.10;5.35;;;24.20;65.10;;;;;;7386816;19;20007;-77
2023/10/09 14:24:32;;;;;;;10.65;5.35;;;24.20;66.30;;;;;;7407570;19;20025;-78
2023/10/09 14:30:41;;;;;;;9.30;4.50;;;24.20;69.30;;;;;;7413737;19;20048;-77
2023/10/09 14:33:40;;;;;;;12.07;5.32;;;24.10;70.40;;;;;;7385679;19;20074;-79
2023/10/09 14:39:48;;;;;;;17.35;5.90;;;24.10;73.40;;;;;;7393384;19;19999;-78
2023/10/09 14:42:21;;;;;;;14.43;5.03;;;24.10;76.90;;;;;;7410188;19;20010;-80
2023/10/09 14:44:51;;;;;;;13.55;5.00;;;24.10;77.10;;;;;;7385905;19;20070;-78
2023/10/09 14:47:27;;;;;;;11.50;4.63;;;24.10;77.50;;;;;;7387886;19;20023;-79
2023/10/09 14:50:14;;;;;;;;;;;;;;;;;;;;;
2023/10/09 14:53:17;;;;;;;;;;;;;;;;;;;;;
2023/10/09 15:42:36;;;;;;;;;;;;;;;;;;;;;
2023/10/09 15:45:32;;;;;;;;;;;;;;;;;;;;;
2023/10/09 15:48:06;;;;;;;12.25;4.60;;;23.80;78.60;;;;;;7385831;19;20929;-81
2023/10/09 15:50:41;;;;;;;11.25;4.07;;;23.80;77.70;;;;;;7387358;19;20042;-80
2023/10/09 15:53:12;;;;;;;12.77;5.00;;;23.80;76.30;;;;;;7386313;19;20015;-79
2023/10/09 15:56:07;;;;;;;9.93;4.40;;;23.70;76.70;;;;;;7386632;19;20302;-82
2023/10/09 16:01:57;;;;;;;;;;;;;;;;;;;;;
2023/10/09 16:04:54;;;;;;;12.05;4.53;;;23.40;76.70;;;;;;7384299;19;20006;-81
2023/10/09 16:07:39;;;;;;;;;;;;;;;;;;;;;
2023/10/09 16:10:09;;;;;;;11.23;4.70;;;23.30;77.90;;;;;;7389911;19;20014;-79
2023/10/09 16:12:43;;;;;;;11.73;4.70;;;23.30;78.20;;;;;;7381494;19;20232;-78
2023/10/09 16:15:14;;;;;;;11.40;4.95;;;23.30;77.50;;;;;;7402058;19;20274;-77
2023/10/09 16:17:43;;;;;;;12.05;4.57;;;23.20;77.50;;;;;;7381104;19;20071;-78
2023/10/09 16:20:21;;;;;;;14.25;4.75;;;23.20;78.30;;;;;;7390341;19;20272;-77
2023/10/09 16:22:50;;;;;;;15.02;5.25;;;23.20;77.90;;;;;;7397649;19;20040;-77
2023/10/09 16:25:30;;;;;;;;;;;;;;;;;;;;;
2023/10/09 16:28:06;;;;;;;19.55;5.07;;;23.00;77.20;;;;;;7379609;19;20104;-77
2023/10/09 16:30:40;;;;;;;16.30;4.75;;;22.80;79.00;;;;;;7378504;19;20027;-77
2023/10/09 16:33:26;;;;;;;;;;;;;;;;;;;;;
2023/10/09 16:36:30;;;;;;;8.75;5.00;;;22.70;79.80;;;;;;7380440;19;20411;-77
2023/10/09 16:39:18;;;;;;;10.07;4.65;;;22.70;80.10;;;;;;7379064;19;20065;-80
2023/10/09 16:41:52;;;;;;;12.77;4.68;;;22.70;80.50;;;;;;7378494;19;20026;-77
2023/10/09 16:44:24;;;;;;;10.50;4.55;;;22.60;81.60;;;;;;7401941;19;20006;-77
2023/10/09 16:50:51;;;;;;;;;;;;;;;;;;;;;
2023/10/09 16:54:01;;;;;;;;;;;;;;;;;;;;;
2023/10/09 16:57:10;;;;;;;19.35;4.78;;;22.40;81.80;;;;;;7287322;19;2020510;-82
2023/10/09 17:03:16;;;;;;;;;;;;;;;;;;;;;
2023/10/09 17:09:06;;;;;;;11.63;5.10;;;21.90;84.20;;;;;;7362409;19;20018;-74
2023/10/09 17:11:36;;;;;;;15.40;5.43;;;22.00;84.40;;;;;;7398547;19;20009;-75
2023/10/09 17:14:06;;;;;;;13.77;4.90;;;21.90;84.70;;;;;;7376519;19;20002;-75
2023/10/09 17:16:40;;;;;;;20.80;4.72;;;21.90;85.20;;;;;;7377349;19;20048;-75
2023/10/09 17:19:13;;;;;;;17.40;5.80;;;21.90;85.50;;;;;;7377601;19;20003;-75
2023/10/09 17:21:51;;;;;;;22.70;5.40;;;21.80;85.80;;;;;;7376256;19;20283;-75
2023/10/09 17:24:20;;;;;;;12.20;5.13;;;21.70;86.00;;;;;;7400941;19;20058;-74
2023/10/09 17:26:50;;;;;;;20.70;5.88;;;21.70;86.10;;;;;;7376371;19;20011;-74
2023/10/09 17:29:19;;;;;;;14.80;5.40;;;21.60;86.40;;;;;;7376280;19;20024;-75
2023/10/09 17:31:49;;;;;;;20.38;5.13;;;21.60;86.40;;;;;;7376381;19;20020;-74
2023/10/09 17:34:22;;;;;;;13.35;5.03;;;21.50;86.40;;;;;;7376715;19;20009;-75
2023/10/09 17:36:52;;;;;;;15.63;5.40;;;21.40;86.50;;;;;;7377225;19;20122;-74
2023/10/09 17:45:51;;;;;;;;;;;;;;;;;;;;;
2023/10/09 17:48:53;;;;;;;;;;;;;;;;;;;;;
2023/10/09 18:08:14;;;;;;;14.77;5.65;;;21.00;86.80;;;;;;7416451;19;20752;-75
2023/10/09 18:10:43;;;;;;;11.90;5.70;;;20.90;87.00;;;;;;7413851;19;20027;-76
2023/10/09 18:13:17;;;;;;;12.05;5.18;;;20.80;87.50;;;;;;7415889;19;20003;-75
2023/10/09 18:15:46;;;;;;;14.48;5.82;;;20.80;87.80;;;;;;7415196;19;20007;-76
2023/10/09 18:18:19;;;;;;;23.17;6.50;;;20.70;88.30;;;;;;7437739;19;20014;-76
2023/10/09 18:20:49;;;;;;;20.15;6.53;;;20.70;88.60;;;;;;7415991;19;20062;-75
2023/10/09 18:23:20;;;;;;;18.30;6.53;;;20.60;89.60;;;;;;7416840;19;20082;-76
2023/10/09 18:25:50;;;;;;;;;;;20.60;90.30;;;;;;7416951;19;20090;-76
2023/10/09 18:28:18;;;;;;;18.08;6.78;;;20.60;89.70;;;;;;7420320;19;19918;-76
2023/10/09 18:30:49;;;;;;;12.32;5.57;;;20.50;89.40;;;;;;7422164;19;20103;-76
2023/10/09 18:33:17;;;;;;;18.67;6.72;;;20.50;89.30;;;;;;7443511;19;20010;-76
2023/10/09 18:35:46;;;;;;;15.63;6.53;;;20.40;89.40;;;;;;7420789;19;20010;-77
2023/10/09 18:38:16;;;;;;;26.42;11.60;;;20.40;89.50;;;;;;7416419;19;20015;-76
2023/10/09 18:40:49;;;;;;;13.40;6.05;;;20.40;89.50;;;;;;7414911;19;20087;-76
2023/10/09 18:43:19;;;;;;;17.10;6.40;;;20.30;89.90;;;;;;7415208;19;20006;-75
2023/10/09 18:45:48;;;;;;;15.25;5.82;;;20.30;90.10;;;;;;7414303;19;20429;-76
2023/10/09 18:48:21;;;;;;;16.20;6.78;;;20.30;90.00;;;;;;7436289;19;20007;-77
2023/10/09 18:50:51;;;;;;;18.10;6.63;;;20.30;90.10;;;;;;7413723;19;19998;-76
2023/10/09 18:53:20;;;;;;;16.88;6.13;;;20.30;90.10;;;;;;7414232;19;20006;-76
2023/10/09 18:55:54;;;;;;;19.35;6.70;;;20.30;90.20;;;;;;7414691;19;20002;-76
2023/10/09 18:58:23;;;;;;;19.50;7.68;;;20.20;90.40;;;;;;7413924;19;20007;-76
2023/10/09 19:00:58;;;;;;;24.70;7.75;;;20.20;90.40;;;;;;7413863;19;20379;-76
2023/10/09 19:03:28;;;;;;;22.33;7.63;;;20.20;90.50;;;;;;7435305;19;20016;-75
2023/10/09 19:05:57;;;;;;;18.70;7.03;;;20.20;90.90;;;;;;7414156;19;20002;-74
2023/10/09 19:08:25;;;;;;;20.02;6.35;;;20.10;90.50;;;;;;7393190;19;20263;-76
2023/10/09 19:11:08;;;;;;;18.83;6.50;;;20.10;90.40;;;;;;7385111;19;20006;-76
2023/10/09 19:13:38;;;;;;;22.65;7.35;;;20.10;90.40;;;;;;7385575;19;20363;-77
2023/10/09 19:16:12;;;;;;;16.77;6.30;;;20.10;90.40;;;;;;7385324;19;20302;-76
2023/10/09 19:18:41;;;;;;;14.77;5.80;;;20.10;90.40;;;;;;7382810;19;20011;-76
2023/10/09 19:21:11;;;;;;;16.50;6.40;;;20.10;90.30;;;;;;7405786;19;20327;-76
2023/10/09 19:23:40;;;;;;;18.00;6.43;;;20.10;90.40;;;;;;7385076;19;20078;-76
2023/10/09 19:26:14;;;;;;;18.75;6.85;;;20.10;90.30;;;;;;7384376;19;20010;-76
2023/10/09 19:28:43;;;;;;;23.85;6.50;;;20.00;90.40;;;;;;7384016;19;20079;-76
2023/10/09 19:31:15;;;;;;;20.15;7.00;;;20.00;90.40;;;;;;7383505;19;20010;-76
2023/10/09 19:33:44;;;;;;;16.90;6.93;;;20.00;90.50;;;;;;7384243;19;20010;-75
2023/10/09 19:36:14;;;;;;;15.82;6.47;;;20.00;90.50;;;;;;7404006;19;20062;-76
2023/10/09 19:38:49;;;;;;;17.50;6.78;;;20.00;90.60;;;;;;7382877;19;20366;-76
2023/10/09 19:41:22;;;;;;;16.92;7.03;;;20.00;90.80;;;;;;7383461;19;20043;-77
2023/10/09 19:43:53;;;;;;;24.02;6.82;;;19.90;90.90;;;;;;7383718;19;20003;-76
2023/10/09 19:46:27;;;;;;;14.27;6.60;;;19.90;90.90;;;;;;7383706;19;20014;-76
2023/10/09 19:48:58;;;;;;;17.30;7.20;;;19.90;91.00;;;;;;7383663;19;20259;-76
2023/10/09 19:51:26;;;;;;;18.98;7.25;;;19.90;91.00;;;;;;7405482;19;20010;-76
2023/10/09 19:53:55;;;;;;;17.65;6.97;;;19.80;91.00;;;;;;7383341;19;20007;-76
2023/10/09 19:56:27;;;;;;;19.77;6.90;;;19.80;91.00;;;;;;7382851;19;20003;-75
2023/10/09 19:58:58;;;;;;;16.30;6.43;;;19.80;91.00;;;;;;7384347;19;20016;-77
2023/10/09 20:01:27;;;;;;;16.42;6.97;;;19.80;90.90;;;;;;7386695;19;20362;-75
2023/10/09 20:03:56;;;;;;;15.23;6.03;;;19.80;90.80;;;;;;7385244;19;20006;-76
2023/10/09 20:06:25;;;;;;;18.02;6.43;;;19.70;90.80;;;;;;7403916;19;20007;-76
2023/10/09 20:08:53;;;;;;;17.20;6.65;;;19.70;90.70;;;;;;7382159;19;20011;-75
2023/10/09 20:11:22;;;;;;;21.02;7.22;;;19.70;90.60;;;;;;7382794;19;20420;-77
2023/10/09 20:13:54;;;;;;;15.93;6.47;;;19.70;90.60;;;;;;7382407;19;20007;-76
2023/10/09 20:16:26;;;;;;;15.15;7.07;;;19.70;90.60;;;;;;7382129;19;20007;-75
2023/10/09 20:18:55;;;;;;;16.77;6.60;;;19.70;90.50;;;;;;7383185;19;20264;-76
2023/10/09 20:21:24;;;;;;;14.52;5.70;;;19.60;90.60;;;;;;7411853;19;20011;-75
2023/10/09 20:23:55;;;;;;;16.50;6.30;;;19.60;90.70;;;;;;7385423;19;20006;-77
2023/10/09 20:26:25;;;;;;;16.80;6.65;;;19.60;90.70;;;;;;7382706;19;20003;-76
2023/10/09 20:28:57;;;;;;;15.05;5.95;;;19.50;90.60;;;;;;7382896;19;20230;-75
2023/10/09 20:31:26;;;;;;;18.15;7.03;;;19.50;90.60;;;;;;7382453;19;20264;-75
2023/10/09 20:33:57;;;;;;;15.90;6.30;;;19.50;90.60;;;;;;7380206;19;20010;-74
2023/10/09 20:36:30;;;;;;;23.00;7.07;;;19.40;90.60;;;;;;7403398;19;20035;-74
2023/10/09 20:38:59;;;;;;;15.63;6.53;;;19.50;90.70;;;;;;7381608;19;20030;-75
2023/10/09 20:41:28;;;;;;;17.25;6.18;;;19.40;90.70;;;;;;7381404;19;20018;-74
2023/10/09 20:43:59;;;;;;;14.23;6.32;;;19.40;90.60;;;;;;7382323;19;20007;-75
2023/10/09 20:46:31;;;;;;;15.70;6.25;;;19.30;90.70;;;;;;7382211;19;20015;-76
2023/10/09 20:48:59;;;;;;;15.13;6.70;;;19.30;90.90;;;;;;7381757;19;20010;-74
2023/10/09 20:51:29;;;;;;;19.10;6.72;;;19.30;90.80;;;;;;7403455;19;20031;-74
2023/10/09 20:53:58;;;;;;;20.23;6.63;;;19.30;90.70;;;;;;7380906;19;20009;-75
2023/10/09 20:56:29;;;;;;;19.92;7.10;;;19.30;90.70;;;;;;7381256;19;20023;-76
2023/10/09 20:59:00;;;;;;;13.73;7.27;;;19.20;90.70;;;;;;7381879;19;20006;-75
2023/10/09 21:01:29;;;;;;;18.75;6.63;;;19.30;90.80;;;;;;7380190;19;20293;-74
2023/10/09 21:03:58;;;;;;;15.02;6.70;;;19.30;90.90;;;;;;7381659;19;20014;-75
2023/10/09 21:06:27;;;;;;;14.65;6.80;;;19.20;90.90;;;;;;7402355;19;20370;-74
2023/10/09 21:08:55;;;;;;;15.20;6.68;;;19.30;90.90;;;;;;7380438;19;20069;-76
2023/10/09 21:11:24;;;;;;;14.27;6.53;;;19.20;90.80;;;;;;7380905;19;20346;-75
2023/10/09 21:13:54;;;;;;;17.58;6.53;;;19.30;90.70;;;;;;7381185;19;20006;-74
2023/10/09 21:16:27;;;;;;;13.50;6.70;;;19.20;90.70;;;;;;7381140;19;20006;-75
2023/10/09 21:18:56;;;;;;;17.08;6.90;;;19.20;90.80;;;;;;7380808;19;20030;-75
2023/10/09 21:21:31;;;;;;;14.27;6.63;;;19.20;90.80;;;;;;7402578;19;20007;-75
2023/10/09 21:24:01;;;;;;;17.40;6.72;;;19.10;90.80;;;;;;7383677;19;20027;-76
2023/10/09 21:26:41;;;;;;;16.98;6.82;;;19.00;90.90;;;;;;7381266;19;20501;-78
2023/10/09 21:29:13;;;;;;;18.77;8.07;;;19.00;90.90;;;;;;7382816;19;20010;-78
2023/10/09 21:31:47;;;;;;;19.73;7.90;;;18.90;90.90;;;;;;7379010;19;20003;-77
2023/10/09 21:34:16;;;;;;;19.75;7.18;;;18.90;90.90;;;;;;7381771;19;20410;-77
2023/10/09 21:36:45;;;;;;;15.38;6.50;;;18.90;90.90;;;;;;7380907;19;20027;-77
2023/10/09 21:39:17;;;;;;;18.83;6.38;;;18.90;91.20;;;;;;7402122;19;20002;-77
2023/10/09 21:41:46;;;;;;;22.13;6.95;;;18.90;90.80;;;;;;7381031;19;20031;-78
2023/10/09 21:44:16;;;;;;;19.40;6.22;;;18.90;90.80;;;;;;7380137;19;20007;-77
2023/10/09 21:46:52;;;;;;;15.52;6.40;;;18.90;90.70;;;;;;7382716;19;20010;-78
2023/10/09 21:49:20;;;;;;;15.27;6.65;;;18.90;90.60;;;;;;7383080;19;20007;-77
2023/10/09 21:51:53;;;;;;;15.75;6.72;;;18.90;90.50;;;;;;7380952;19;20006;-77
2023/10/09 21:54:24;;;;;;;29.75;7.05;;;19.00;90.50;;;;;;7403442;19;20011;-77
2023/10/09 21:56:54;;;;;;;11.52;5.65;;;18.90;90.40;;;;;;7380062;19;20010;-77
2023/10/09 21:59:27;;;;;;;15.35;6.35;;;18.90;90.30;;;;;;7380905;19;20024;-77
2023/10/09 22:01:58;;;;;;;16.23;6.45;;;18.90;90.30;;;;;;7382134;19;20003;-77
2023/10/09 22:04:36;;;;;;;14.07;6.35;;;18.80;90.40;;;;;;7382266;19;20087;-76
2023/10/09 22:07:08;;;;;;;13.15;6.35;;;18.80;90.40;;;;;;7380220;19;20047;-78
2023/10/09 22:09:37;;;;;;;15.52;6.47;;;18.80;90.50;;;;;;7385393;19;20006;-76
2023/10/09 22:12:06;;;;;;;17.98;7.13;;;18.80;90.50;;;;;;7413326;19;20010;-77
2023/10/09 22:14:36;;;;;;;13.20;6.22;;;18.70;90.60;;;;;;7389503;19;20007;-77
2023/10/09 22:17:07;;;;;;;14.57;6.65;;;18.70;91.10;;;;;;7387436;19;20279;-77
2023/10/09 22:19:36;;;;;;;17.98;6.40;;;18.60;90.80;;;;;;7387771;19;20370;-76
2023/10/09 22:22:10;;;;;;;16.90;6.90;;;18.60;90.80;;;;;;7380784;19;20007;-77
2023/10/09 22:24:48;;;;;;;17.15;6.72;;;18.50;90.90;;;;;;7379488;19;20023;-77
2023/10/09 22:27:23;;;;;;;11.43;6.43;;;18.50;90.90;;;;;;7401715;19;20023;-77
2023/10/09 22:29:53;;;;;;;14.15;6.32;;;18.50;91.00;;;;;;7389654;19;20010;-77
2023/10/09 22:32:27;;;;;;;16.73;6.43;;;18.40;91.00;;;;;;7384401;19;20011;-77
2023/10/09 22:34:57;;;;;;;17.52;6.93;;;18.50;91.00;;;;;;7379907;19;20374;-76
2023/10/09 22:37:31;;;;;;;17.83;6.05;;;18.40;90.90;;;;;;7379456;19;20007;-76